Tupelo, Arkansas
Current Conditions -  °F | °C
As of 3:56 AM on Sunday 21 Dec 2014 (Local Time) from KM19 Reporting Station
Overcast Overcast  
Wind Chill: 33°   Ceiling: 4400
Heat Index: 38°   Visibility: 9mi
Dew Point: 36°   Wind: 6mph
Humidity: 93%   Direction: 80°E
Pressure: 30.24"   Gusts: NA
Location:  35.39°N, 91.23°W
Report Text: KM19 210956Z AUTO 08005KT 9SM OVC044 03/02 A3024 RMK AO2 T00330022 SLP240
Loading
Personal Weather Stations






























Interactive Weather Map New forecast layout! Learn more

10-Day Weather Forecast

Advertisements
Track Severe Weather on mobile